Jump to content

  •  

TAMPA CARGO FLIGHT QT430 FLOWN ON 09-28-2017 BY CAPTAIN ADEL CABALLIN

Pilot StatsCaptain Adel Caballin (LDP11) • 710.2 total hours • 384 total flights [View Logbook]
FLIGHT DETAILS
StatusReceived and approved on 2017-09-28 at 22:09:33
Origin AirportLa Aurora Intl (MGGT) • Guatemala City, Guatemala (4,951 feet MSL)
Filed Flight PlanMGGT KAPAN UG436 LIB UG440 CANAS MROC
Destination AirportJuan Santamaria Intl (MROC) • San Jose, Costa Rica (3,020 feet MSL)
Alternate AirportNone Filed
AirlineTampa Cargo
AircraftAirbus A330-200 Freighter (33F / A330-200F)
FS Aircraft UsedAirbus A330-200F Avianca Cargo (Tampa Cargo) N330QT
Cruising AltitudeFL380
Distance Flown462 nautical miles
Cargo Onboard79,500 lbs (99.13% full)
DEPARTURE DETAILS
Time Out08:18:05
Taxi Data337,933 lbs total with 33,233 lbs of fuel onboard
Takeoff Data08:29:42 (12 minutes after leaving gate/ramp) • 335,932 lbs total • 5° pitch at 158 knots
Departure METARMGGT 282300Z 19008KT 9999 SCT018 SCT080 BKN200 21/17 Q1019 A3009 PCPN NNE/SW/WSW
ARRIVAL DETAILS
Landing Data10:44:37 • 316,313 lbs total • 6° pitch doing 110 knots at a rate of -183.01 feet/minute with 10,397 lbs of fuel onboard
Time In10:51:34 (7 minutes after landing)
Ramp Weight315,097 lbs total
Total Fuel Used22,836 lbs
Total Block Time01:34:24 (1.6 hours) while 19 minutes were spent on the ground
Arrival METARMROC 290300Z 03003KT CAVOK 22/20 A2999 NOSIG
MISCELLANEOUS DETAILS
LiveDISPATCH Version4.8.3.1
FS Version
FSUIPC Version4.97
OS VersionWindows 7 32-bit
Screen Resolution1920 x 1080
Pilot's CommentsRoute: VIDAL2 KAPAN UG436 LIB PARZA3
FLIGHT MAP